sensor_id;sensor_type;location;lat;lon;timestamp;pressure;altitude;pressure_sealevel;temperature;humidity
79067;BME280;68470;50.224;14.348;2023-03-11T00:01:06;96986.63;;;5.40;67.77
79067;BME280;68470;50.224;14.348;2023-03-11T00:03:32;97007.59;;;5.16;69.87
79067;BME280;68470;50.224;14.348;2023-03-11T00:05:59;97031.53;;;4.61;75.86
79067;BME280;68470;50.224;14.348;2023-03-11T00:08:29;97031.34;;;4.08;78.90
79067;BME280;68470;50.224;14.348;2023-03-11T00:10:56;97055.41;;;3.80;79.17
79067;BME280;68470;50.224;14.348;2023-03-11T00:13:26;97053.88;;;3.54;77.45
79067;BME280;68470;50.224;14.348;2023-03-11T00:15:54;97058.84;;;3.37;79.39
79067;BME280;68470;50.224;14.348;2023-03-11T00:18:25;97083.88;;;3.13;79.39
79067;BME280;68470;50.224;14.348;2023-03-11T00:20:54;97075.75;;;2.93;79.56
79067;BME280;68470;50.224;14.348;2023-03-11T00:23:20;97072.47;;;2.96;80.04
79067;BME280;68470;50.224;14.348;2023-03-11T00:25:46;97080.63;;;2.76;78.56
79067;BME280;68470;50.224;14.348;2023-03-11T00:28:14;97108.59;;;2.56;79.48
79067;BME280;68470;50.224;14.348;2023-03-11T00:30:41;97111.50;;;2.29;81.40
79067;BME280;68470;50.224;14.348;2023-03-11T00:33:08;97125.59;;;2.16;82.64
79067;BME280;68470;50.224;14.348;2023-03-11T00:35:35;97120.06;;;1.85;82.05
79067;BME280;68470;50.224;14.348;2023-03-11T00:38:05;97134.16;;;1.87;82.16
79067;BME280;68470;50.224;14.348;2023-03-11T00:40:33;97137.34;;;1.74;83.37
79067;BME280;68470;50.224;14.348;2023-03-11T00:42:59;97123.47;;;1.65;83.67
79067;BME280;68470;50.224;14.348;2023-03-11T00:45:26;97131.59;;;1.65;83.72
79067;BME280;68470;50.224;14.348;2023-03-11T00:47:54;97150.28;;;1.57;84.03
79067;BME280;68470;50.224;14.348;2023-03-11T00:50:26;97144.84;;;1.52;83.82
79067;BME280;68470;50.224;14.348;2023-03-11T00:52:52;97161.38;;;1.55;83.92
79067;BME280;68470;50.224;14.348;2023-03-11T00:55:25;97150.50;;;1.50;84.43
79067;BME280;68470;50.224;14.348;2023-03-11T00:57:55;97161.84;;;1.47;84.52
79067;BME280;68470;50.224;14.348;2023-03-11T01:00:23;97166.19;;;1.43;83.63
79067;BME280;68470;50.224;14.348;2023-03-11T01:02:51;97184.38;;;1.47;84.56
79067;BME280;68470;50.224;14.348;2023-03-11T01:05:19;97203.22;;;1.32;83.85
79067;BME280;68470;50.224;14.348;2023-03-11T01:07:45;97198.94;;;1.36;85.58
79067;BME280;68470;50.224;14.348;2023-03-11T01:10:11;97194.34;;;1.37;84.48
79067;BME280;68470;50.224;14.348;2023-03-11T01:12:37;97211.41;;;1.37;84.49
79067;BME280;68470;50.224;14.348;2023-03-11T01:15:04;97219.28;;;1.39;84.87
79067;BME280;68470;50.224;14.348;2023-03-11T01:17:30;97239.94;;;1.45;82.89
79067;BME280;68470;50.224;14.348;2023-03-11T01:19:56;97245.34;;;1.45;83.20
79067;BME280;68470;50.224;14.348;2023-03-11T01:22:21;97236.44;;;1.49;84.07
79067;BME280;68470;50.224;14.348;2023-03-11T01:24:47;97241.00;;;1.44;83.78
79067;BME280;68470;50.224;14.348;2023-03-11T01:27:13;97236.63;;;1.38;83.72
79067;BME280;68470;50.224;14.348;2023-03-11T01:29:39;97239.00;;;1.34;85.12
79067;BME280;68470;50.224;14.348;2023-03-11T01:32:05;97235.50;;;1.34;83.71
79067;BME280;68470;50.224;14.348;2023-03-11T01:34:31;97258.56;;;1.36;83.27
79067;BME280;68470;50.224;14.348;2023-03-11T01:37:03;97250.69;;;1.35;84.24
79067;BME280;68470;50.224;14.348;2023-03-11T01:39:29;97261.22;;;1.31;84.32
79067;BME280;68470;50.224;14.348;2023-03-11T01:41:55;97263.06;;;1.26;84.99
79067;BME280;68470;50.224;14.348;2023-03-11T01:44:21;97263.06;;;1.26;85.03
79067;BME280;68470;50.224;14.348;2023-03-11T01:49:20;97260.94;;;1.28;81.41
79067;BME280;68470;50.224;14.348;2023-03-11T01:51:48;97265.56;;;1.32;81.91
79067;BME280;68470;50.224;14.348;2023-03-11T01:56:48;97261.03;;;1.38;78.44
79067;BME280;68470;50.224;14.348;2023-03-11T01:59:19;97252.66;;;1.44;75.19
79067;BME280;68470;50.224;14.348;2023-03-11T02:02:23;97272.00;;;1.53;76.01
79067;BME280;68470;50.224;14.348;2023-03-11T02:04:50;97259.25;;;1.54;74.41
79067;BME280;68470;50.224;14.348;2023-03-11T02:07:17;97276.59;;;1.53;76.68
79067;BME280;68470;50.224;14.348;2023-03-11T02:09:43;97284.22;;;1.56;76.93
79067;BME280;68470;50.224;14.348;2023-03-11T02:12:12;97278.53;;;1.57;76.39
79067;BME280;68470;50.224;14.348;2023-03-11T02:14:42;97269.31;;;1.58;75.40
79067;BME280;68470;50.224;14.348;2023-03-11T02:17:09;97274.31;;;1.71;74.00
79067;BME280;68470;50.224;14.348;2023-03-11T02:22:37;97287.34;;;1.74;72.25
79067;BME280;68470;50.224;14.348;2023-03-11T02:25:20;97288.38;;;1.68;74.57
79067;BME280;68470;50.224;14.348;2023-03-11T02:27:50;97283.47;;;1.65;74.61
79067;BME280;68470;50.224;14.348;2023-03-11T02:30:18;97290.25;;;1.68;75.28
79067;BME280;68470;50.224;14.348;2023-03-11T02:32:45;97301.69;;;1.70;74.14
79067;BME280;68470;50.224;14.348;2023-03-11T02:35:14;97303.31;;;1.71;72.24
79067;BME280;68470;50.224;14.348;2023-03-11T02:37:47;97309.84;;;1.75;70.18
79067;BME280;68470;50.224;14.348;2023-03-11T02:42:42;97311.41;;;1.66;71.14
79067;BME280;68470;50.224;14.348;2023-03-11T02:45:11;97324.41;;;1.64;72.56
79067;BME280;68470;50.224;14.348;2023-03-11T02:47:39;97313.56;;;1.64;71.12
79067;BME280;68470;50.224;14.348;2023-03-11T02:50:08;97319.50;;;1.61;74.55
79067;BME280;68470;50.224;14.348;2023-03-11T02:52:35;97337.63;;;1.55;73.59
79067;BME280;68470;50.224;14.348;2023-03-11T02:55:02;97337.53;;;1.45;75.06
79067;BME280;68470;50.224;14.348;2023-03-11T02:57:28;97345.41;;;1.46;75.33
79067;BME280;68470;50.224;14.348;2023-03-11T02:59:53;97340.78;;;1.47;75.48
79067;BME280;68470;50.224;14.348;2023-03-11T03:02:19;97350.81;;;1.46;71.74
79067;BME280;68470;50.224;14.348;2023-03-11T03:04:45;97363.56;;;1.46;73.69
79067;BME280;68470;50.224;14.348;2023-03-11T03:07:11;97364.88;;;1.43;73.29
79067;BME280;68470;50.224;14.348;2023-03-11T03:09:37;97382.22;;;1.42;73.74
79067;BME280;68470;50.224;14.348;2023-03-11T03:12:03;97392.22;;;1.37;73.29
79067;BME280;68470;50.224;14.348;2023-03-11T03:14:30;97387.06;;;1.35;72.38
79067;BME280;68470;50.224;14.348;2023-03-11T03:16:56;97402.78;;;1.38;72.52
79067;BME280;68470;50.224;14.348;2023-03-11T03:19:22;97389.50;;;1.37;72.74
79067;BME280;68470;50.224;14.348;2023-03-11T03:21:48;97383.44;;;1.30;72.40
79067;BME280;68470;50.224;14.348;2023-03-11T03:24:14;97402.72;;;1.33;72.56
79067;BME280;68470;50.224;14.348;2023-03-11T03:26:40;97414.16;;;1.35;73.17
79067;BME280;68470;50.224;14.348;2023-03-11T03:29:06;97408.66;;;1.30;71.56
79067;BME280;68470;50.224;14.348;2023-03-11T03:31:32;97407.03;;;1.29;72.72
79067;BME280;68470;50.224;14.348;2023-03-11T03:33:58;97417.84;;;1.29;71.58
79067;BME280;68470;50.224;14.348;2023-03-11T03:36:24;97428.13;;;1.27;72.10
79067;BME280;68470;50.224;14.348;2023-03-11T03:38:54;97431.72;;;1.33;71.86
79067;BME280;68470;50.224;14.348;2023-03-11T03:41:20;97441.19;;;1.30;71.48
79067;BME280;68470;50.224;14.348;2023-03-11T03:43:47;97451.22;;;1.30;72.55
79067;BME280;68470;50.224;14.348;2023-03-11T03:46:12;97454.69;;;1.25;71.97
79067;BME280;68470;50.224;14.348;2023-03-11T03:48:39;97460.91;;;1.26;71.05
79067;BME280;68470;50.224;14.348;2023-03-11T03:51:07;97465.78;;;1.24;72.52
79067;BME280;68470;50.224;14.348;2023-03-11T03:53:34;97460.03;;;1.20;72.38
79067;BME280;68470;50.224;14.348;2023-03-11T03:56:11;97468.66;;;1.17;72.78
79067;BME280;68470;50.224;14.348;2023-03-11T03:58:38;97453.66;;;1.09;72.68
79067;BME280;68470;50.224;14.348;2023-03-11T04:01:05;97478.38;;;1.13;73.14
79067;BME280;68470;50.224;14.348;2023-03-11T04:03:31;97474.22;;;1.05;73.03
79067;BME280;68470;50.224;14.348;2023-03-11T04:06:09;97476.94;;;1.05;71.95
79067;BME280;68470;50.224;14.348;2023-03-11T04:08:36;97476.38;;;1.03;72.34
79067;BME280;68470;50.224;14.348;2023-03-11T04:11:02;97493.91;;;1.01;72.74
79067;BME280;68470;50.224;14.348;2023-03-11T04:13:28;97499.31;;;1.01;73.00
79067;BME280;68470;50.224;14.348;2023-03-11T04:15:54;97493.91;;;1.01;73.00
79067;BME280;68470;50.224;14.348;2023-03-11T04:18:21;97489.75;;;0.93;73.30
79067;BME280;68470;50.224;14.348;2023-03-11T04:20:47;97497.63;;;0.95;73.00
79067;BME280;68470;50.224;14.348;2023-03-11T04:23:14;97510.66;;;0.98;72.58
79067;BME280;68470;50.224;14.348;2023-03-11T04:25:39;97513.88;;;0.95;72.80
79067;BME280;68470;50.224;14.348;2023-03-11T04:28:05;97522.56;;;0.97;71.61
79067;BME280;68470;50.224;14.348;2023-03-11T04:30:31;97510.09;;;0.96;71.03
79067;BME280;68470;50.224;14.348;2023-03-11T04:32:57;97529.06;;;0.96;72.32
79067;BME280;68470;50.224;14.348;2023-03-11T04:35:23;97526.03;;;0.92;71.81
79067;BME280;68470;50.224;14.348;2023-03-11T04:37:49;97527.13;;;0.91;71.85
79067;BME280;68470;50.224;14.348;2023-03-11T04:40:15;97547.41;;;0.88;71.90
79067;BME280;68470;50.224;14.348;2023-03-11T04:42:41;97542.94;;;0.82;72.78
79067;BME280;68470;50.224;14.348;2023-03-11T04:45:07;97562.25;;;0.86;73.54
79067;BME280;68470;50.224;14.348;2023-03-11T04:47:34;97552.72;;;0.83;72.08
79067;BME280;68470;50.224;14.348;2023-03-11T04:50:00;97563.22;;;0.80;72.54
79067;BME280;68470;50.224;14.348;2023-03-11T04:52:26;97556.16;;;0.79;72.35
79067;BME280;68470;50.224;14.348;2023-03-11T04:54:51;97568.06;;;0.78;72.96
79067;BME280;68470;50.224;14.348;2023-03-11T04:57:17;97575.81;;;0.69;72.67
79067;BME280;68470;50.224;14.348;2023-03-11T04:59:43;97582.94;;;0.75;72.70
79067;BME280;68470;50.224;14.348;2023-03-11T05:02:09;97594.25;;;0.72;72.85
79067;BME280;68470;50.224;14.348;2023-03-11T05:04:35;97595.91;;;0.73;72.66
79067;BME280;68470;50.224;14.348;2023-03-11T05:07:01;97599.69;;;0.72;72.32
79067;BME280;68470;50.224;14.348;2023-03-11T05:09:27;97603.47;;;0.71;72.48
79067;BME280;68470;50.224;14.348;2023-03-11T05:11:53;97621.84;;;0.69;73.10
79067;BME280;68470;50.224;14.348;2023-03-11T05:14:19;97636.34;;;0.63;73.69
79067;BME280;68470;50.224;14.348;2023-03-11T05:16:45;97644.13;;;0.59;73.78
79067;BME280;68470;50.224;14.348;2023-03-11T05:19:11;97644.72;;;0.62;73.27
79067;BME280;68470;50.224;14.348;2023-03-11T05:21:56;97644.13;;;0.59;73.37
79067;BME280;68470;50.224;14.348;2023-03-11T05:24:22;97642.16;;;0.55;72.95
79067;BME280;68470;50.224;14.348;2023-03-11T05:26:50;97656.28;;;0.57;73.71
79067;BME280;68470;50.224;14.348;2023-03-11T05:29:16;97665.38;;;0.51;73.63
79067;BME280;68470;50.224;14.348;2023-03-11T05:31:42;97682.19;;;0.53;73.63
79067;BME280;68470;50.224;14.348;2023-03-11T05:34:08;97683.03;;;0.53;72.98
79067;BME280;68470;50.224;14.348;2023-03-11T05:36:34;97683.72;;;0.49;72.83
79067;BME280;68470;50.224;14.348;2023-03-11T05:39:00;97690.91;;;0.55;72.26
79067;BME280;68470;50.224;14.348;2023-03-11T05:41:26;97695.97;;;0.51;72.03
79067;BME280;68470;50.224;14.348;2023-03-11T05:43:52;97702.09;;;0.47;72.45
79067;BME280;68470;50.224;14.348;2023-03-11T05:46:18;97702.00;;;0.42;72.65
79067;BME280;68470;50.224;14.348;2023-03-11T05:48:45;97715.22;;;0.38;72.81
79067;BME280;68470;50.224;14.348;2023-03-11T05:51:11;97714.97;;;0.40;73.62
79067;BME280;68470;50.224;14.348;2023-03-11T05:53:37;97713.59;;;0.25;73.95
79067;BME280;68470;50.224;14.348;2023-03-11T05:56:04;97733.34;;;0.38;73.67
79067;BME280;68470;50.224;14.348;2023-03-11T05:58:30;97738.50;;;0.39;73.40
79067;BME280;68470;50.224;14.348;2023-03-11T06:00:57;97747.94;;;0.37;73.73
79067;BME280;68470;50.224;14.348;2023-03-11T06:03:24;97748.50;;;0.39;73.83
79067;BME280;68470;50.224;14.348;2023-03-11T06:05:51;97761.91;;;0.45;73.53
79067;BME280;68470;50.224;14.348;2023-03-11T06:08:18;97757.13;;;0.36;73.89
79067;BME280;68470;50.224;14.348;2023-03-11T06:10:44;97772.97;;;0.44;73.88
79067;BME280;68470;50.224;14.348;2023-03-11T06:13:10;97781.91;;;0.44;74.97
79067;BME280;68470;50.224;14.348;2023-03-11T06:15:36;97791.56;;;0.40;74.52
79067;BME280;68470;50.224;14.348;2023-03-11T06:18:03;97807.81;;;0.40;74.82
79067;BME280;68470;50.224;14.348;2023-03-11T06:20:29;97804.31;;;0.28;75.01
79067;BME280;68470;50.224;14.348;2023-03-11T06:22:55;97811.69;;;0.33;75.71
79067;BME280;68470;50.224;14.348;2023-03-11T06:25:21;97827.00;;;0.39;75.15
79067;BME280;68470;50.224;14.348;2023-03-11T06:27:51;97832.41;;;0.39;75.34
79067;BME280;68470;50.224;14.348;2023-03-11T06:30:18;97846.06;;;0.44;75.55
79067;BME280;68470;50.224;14.348;2023-03-11T06:32:45;97858.75;;;0.43;74.87
79067;BME280;68470;50.224;14.348;2023-03-11T06:35:12;97864.41;;;0.42;75.36
79067;BME280;68470;50.224;14.348;2023-03-11T06:37:38;97882.41;;;0.48;75.63
79067;BME280;68470;50.224;14.348;2023-03-11T06:40:07;97882.41;;;0.59;75.74
79067;BME280;68470;50.224;14.348;2023-03-11T06:42:34;97891.94;;;0.62;75.25
79067;BME280;68470;50.224;14.348;2023-03-11T06:45:00;97896.63;;;0.67;75.13
79067;BME280;68470;50.224;14.348;2023-03-11T06:47:26;97905.94;;;0.71;73.98
79067;BME280;68470;50.224;14.348;2023-03-11T06:49:52;97914.97;;;0.76;73.92
79067;BME280;68470;50.224;14.348;2023-03-11T06:52:18;97921.56;;;0.80;73.32
79067;BME280;68470;50.224;14.348;2023-03-11T06:54:45;97925.31;;;0.91;73.98
79067;BME280;68470;50.224;14.348;2023-03-11T06:57:11;97932.81;;;1.01;73.50
79067;BME280;68470;50.224;14.348;2023-03-11T06:59:37;97925.78;;;1.28;73.02
79067;BME280;68470;50.224;14.348;2023-03-11T07:02:04;97934.66;;;1.24;73.09
79067;BME280;68470;50.224;14.348;2023-03-11T07:04:31;97955.25;;;1.36;72.96
79067;BME280;68470;50.224;14.348;2023-03-11T07:06:58;97956.44;;;1.29;73.14
79067;BME280;68470;50.224;14.348;2023-03-11T07:09:24;97959.59;;;1.37;71.83
79067;BME280;68470;50.224;14.348;2023-03-11T07:11:51;97971.88;;;1.28;72.19
79067;BME280;68470;50.224;14.348;2023-03-11T07:14:18;97974.41;;;1.18;73.10
79067;BME280;68470;50.224;14.348;2023-03-11T07:16:44;97984.53;;;0.99;73.48
79067;BME280;68470;50.224;14.348;2023-03-11T07:19:11;97994.94;;;1.02;73.71
79067;BME280;68470;50.224;14.348;2023-03-11T07:21:37;97990.78;;;1.00;73.47
79067;BME280;68470;50.224;14.348;2023-03-11T07:24:04;97998.56;;;0.96;73.82
79067;BME280;68470;50.224;14.348;2023-03-11T07:26:31;97987.97;;;0.95;73.96
79067;BME280;68470;50.224;14.348;2023-03-11T07:28:58;98012.25;;;0.89;71.69
79067;BME280;68470;50.224;14.348;2023-03-11T07:31:27;98030.50;;;0.94;71.22
79067;BME280;68470;50.224;14.348;2023-03-11T07:33:53;98027.09;;;0.87;72.44
79067;BME280;68470;50.224;14.348;2023-03-11T07:36:21;98021.44;;;0.88;72.29
79067;BME280;68470;50.224;14.348;2023-03-11T07:38:48;98033.94;;;0.89;72.10
79067;BME280;68470;50.224;14.348;2023-03-11T07:41:14;98041.47;;;0.87;71.83
79067;BME280;68470;50.224;14.348;2023-03-11T07:43:42;98061.00;;;0.89;71.70
79067;BME280;68470;50.224;14.348;2023-03-11T07:46:14;98058.31;;;0.89;70.07
79067;BME280;68470;50.224;14.348;2023-03-11T07:48:44;98048.88;;;0.80;70.26
79067;BME280;68470;50.224;14.348;2023-03-11T07:51:13;98075.16;;;0.92;70.89
79067;BME280;68470;50.224;14.348;2023-03-11T07:53:41;98074.66;;;0.95;71.09
79067;BME280;68470;50.224;14.348;2023-03-11T07:56:10;98076.56;;;0.94;71.61
79067;BME280;68470;50.224;14.348;2023-03-11T07:58:37;98077.28;;;0.89;71.52
79067;BME280;68470;50.224;14.348;2023-03-11T08:01:10;98086.94;;;0.85;72.61
79067;BME280;68470;50.224;14.348;2023-03-11T08:03:38;98098.94;;;0.89;72.47
79067;BME280;68470;50.224;14.348;2023-03-11T08:06:16;98104.34;;;0.89;71.95
79067;BME280;68470;50.224;14.348;2023-03-11T08:08:43;98099.28;;;0.93;73.03
79067;BME280;68470;50.224;14.348;2023-03-11T08:11:10;98103.66;;;1.06;72.10
79067;BME280;68470;50.224;14.348;2023-03-11T08:13:44;98090.81;;;1.13;72.36
79067;BME280;68470;50.224;14.348;2023-03-11T08:16:12;98110.50;;;1.20;72.38
79067;BME280;68470;50.224;14.348;2023-03-11T08:18:38;98110.75;;;1.18;71.97
79067;BME280;68470;50.224;14.348;2023-03-11T08:21:05;98111.19;;;1.15;71.64
79067;BME280;68470;50.224;14.348;2023-03-11T08:23:32;98121.69;;;1.12;71.32
79067;BME280;68470;50.224;14.348;2023-03-11T08:25:58;98132.06;;;1.03;72.75
79067;BME280;68470;50.224;14.348;2023-03-11T08:28:27;98132.88;;;1.15;72.09
79067;BME280;68470;50.224;14.348;2023-03-11T08:30:52;98149.72;;;1.17;71.58
79067;BME280;68470;50.224;14.348;2023-03-11T08:33:21;98142.44;;;1.18;71.36
79067;BME280;68470;50.224;14.348;2023-03-11T08:35:47;98150.78;;;1.28;70.69
79067;BME280;68470;50.224;14.348;2023-03-11T08:38:13;98162.22;;;1.42;70.64
79067;BME280;68470;50.224;14.348;2023-03-11T08:40:39;98156.81;;;1.42;70.75
79067;BME280;68470;50.224;14.348;2023-03-11T08:43:05;98163.06;;;1.42;71.38
79067;BME280;68470;50.224;14.348;2023-03-11T08:45:32;98166.09;;;1.58;71.38
79067;BME280;68470;50.224;14.348;2023-03-11T08:47:58;98177.53;;;1.60;71.86
79067;BME280;68470;50.224;14.348;2023-03-11T08:50:24;98182.09;;;1.83;71.06
79067;BME280;68470;50.224;14.348;2023-03-11T08:52:50;98185.63;;;1.95;69.67
79067;BME280;68470;50.224;14.348;2023-03-11T08:55:17;98193.91;;;1.88;69.82
79067;BME280;68470;50.224;14.348;2023-03-11T08:57:50;98188.34;;;1.83;69.79
79067;BME280;68470;50.224;14.348;2023-03-11T09:00:16;98212.78;;;1.83;70.09
79067;BME280;68470;50.224;14.348;2023-03-11T09:02:42;98203.84;;;1.71;69.80
79067;BME280;68470;50.224;14.348;2023-03-11T09:05:08;98206.31;;;1.61;70.18
79067;BME280;68470;50.224;14.348;2023-03-11T09:07:35;98221.19;;;1.70;70.30
79067;BME280;68470;50.224;14.348;2023-03-11T09:10:01;98224.81;;;1.64;69.27
79067;BME280;68470;50.224;14.348;2023-03-11T09:12:27;98226.47;;;1.65;69.56
79067;BME280;68470;50.224;14.348;2023-03-11T09:14:53;98229.31;;;1.58;69.64
79067;BME280;68470;50.224;14.348;2023-03-11T09:17:21;98232.16;;;1.52;70.26
79067;BME280;68470;50.224;14.348;2023-03-11T09:19:46;98242.16;;;1.74;70.30
79067;BME280;68470;50.224;14.348;2023-03-11T09:22:13;98250.88;;;1.76;69.52
79067;BME280;68470;50.224;14.348;2023-03-11T09:24:38;98248.78;;;1.55;68.75
79067;BME280;68470;50.224;14.348;2023-03-11T09:27:05;98253.38;;;1.55;70.57
79067;BME280;68470;50.224;14.348;2023-03-11T09:29:30;98270.59;;;1.72;70.18
79067;BME280;68470;50.224;14.348;2023-03-11T09:31:57;98270.47;;;1.78;69.30
79067;BME280;68470;50.224;14.348;2023-03-11T09:34:23;98259.25;;;1.98;70.00
79067;BME280;68470;50.224;14.348;2023-03-11T09:36:49;98265.25;;;2.12;68.32
79067;BME280;68470;50.224;14.348;2023-03-11T09:39:15;98275.53;;;2.22;68.67
79067;BME280;68470;50.224;14.348;2023-03-11T09:44:27;98297.94;;;2.29;67.80
79067;BME280;68470;50.224;14.348;2023-03-11T09:47:02;98297.59;;;2.25;67.07
79067;BME280;68470;50.224;14.348;2023-03-11T09:57:51;98306.47;;;2.61;66.41
79067;BME280;68470;50.224;14.348;2023-03-11T10:00:19;98310.16;;;2.95;65.55
79067;BME280;68470;50.224;14.348;2023-03-11T10:02:46;98308.94;;;3.03;65.91
79067;BME280;68470;50.224;14.348;2023-03-11T10:05:20;98298.47;;;3.56;64.02
79067;BME280;68470;50.224;14.348;2023-03-11T10:07:56;98297.41;;;3.74;63.95
79067;BME280;68470;50.224;14.348;2023-03-11T10:10:23;98301.44;;;4.05;62.96
79067;BME280;68470;50.224;14.348;2023-03-11T10:13:02;98325.34;;;4.20;62.96
79067;BME280;68470;50.224;14.348;2023-03-11T10:16:02;98321.72;;;3.64;63.03
79067;BME280;68470;50.224;14.348;2023-03-11T10:18:52;98324.19;;;3.49;63.47
79067;BME280;68470;50.224;14.348;2023-03-11T10:21:37;98317.09;;;4.15;61.94
79067;BME280;68470;50.224;14.348;2023-03-11T10:24:28;98330.97;;;3.80;62.02
79067;BME280;68470;50.224;14.348;2023-03-11T10:27:02;98342.63;;;3.30;62.86
79067;BME280;68470;50.224;14.348;2023-03-11T10:29:44;98345.59;;;3.28;64.15
79067;BME280;68470;50.224;14.348;2023-03-11T10:32:18;98351.66;;;3.19;63.86
79067;BME280;68470;50.224;14.348;2023-03-11T10:34:55;98354.03;;;3.15;64.45
79067;BME280;68470;50.224;14.348;2023-03-11T10:37:26;98361.13;;;3.45;64.25
79067;BME280;68470;50.224;14.348;2023-03-11T10:39:57;98358.59;;;3.26;64.32
79067;BME280;68470;50.224;14.348;2023-03-11T10:42:31;98348.94;;;3.19;64.06
79067;BME280;68470;50.224;14.348;2023-03-11T10:44:58;98357.41;;;3.06;63.18
79067;BME280;68470;50.224;14.348;2023-03-11T10:47:25;98362.94;;;3.11;63.58
79067;BME280;68470;50.224;14.348;2023-03-11T10:49:51;98354.72;;;2.94;64.28
79067;BME280;68470;50.224;14.348;2023-03-11T10:52:18;98364.69;;;2.77;64.34
79067;BME280;68470;50.224;14.348;2023-03-11T10:54:46;98363.38;;;2.79;63.76
79067;BME280;68470;50.224;14.348;2023-03-11T10:57:29;98379.22;;;3.11;64.55
79067;BME280;68470;50.224;14.348;2023-03-11T10:59:59;98377.69;;;3.43;63.86
79067;BME280;68470;50.224;14.348;2023-03-11T11:02:31;98376.34;;;3.74;61.51
79067;BME280;68470;50.224;14.348;2023-03-11T11:07:45;98373.38;;;3.76;61.51
79067;BME280;68470;50.224;14.348;2023-03-11T11:10:23;98381.47;;;3.71;60.61
79067;BME280;68470;50.224;14.348;2023-03-11T11:13:16;98393.84;;;3.50;59.64
79067;BME280;68470;50.224;14.348;2023-03-11T11:18:32;98386.97;;;3.59;61.69
79067;BME280;68470;50.224;14.348;2023-03-11T11:21:04;98390.09;;;3.84;60.34
79067;BME280;68470;50.224;14.348;2023-03-11T11:23:32;98388.91;;;4.64;59.50
79067;BME280;68470;50.224;14.348;2023-03-11T11:26:02;98388.47;;;5.16;58.92
79067;BME280;68470;50.224;14.348;2023-03-11T11:28:30;98388.38;;;5.55;56.68
79067;BME280;68470;50.224;14.348;2023-03-11T11:31:02;98379.56;;;5.21;55.98
79067;BME280;68470;50.224;14.348;2023-03-11T11:33:37;98378.06;;;5.35;56.54
79067;BME280;68470;50.224;14.348;2023-03-11T11:36:05;98379.56;;;5.21;55.58
79067;BME280;68470;50.224;14.348;2023-03-11T11:38:37;98382.66;;;4.86;55.53
79067;BME280;68470;50.224;14.348;2023-03-11T11:41:04;98384.78;;;4.62;55.59
79067;BME280;68470;50.224;14.348;2023-03-11T11:43:55;98386.19;;;4.86;56.32
79067;BME280;68470;50.224;14.348;2023-03-11T11:49:02;98386.94;;;4.04;54.91
79067;BME280;68470;50.224;14.348;2023-03-11T11:51:37;98400.28;;;4.06;53.21
79067;BME280;68470;50.224;14.348;2023-03-11T11:56:31;98412.31;;;3.76;56.02
79067;BME280;68470;50.224;14.348;2023-03-11T11:59:08;98416.91;;;3.76;54.74
79067;BME280;68470;50.224;14.348;2023-03-11T12:05:16;98414.41;;;3.57;54.14
79067;BME280;68470;50.224;14.348;2023-03-11T12:10:39;98416.13;;;3.92;55.20
79067;BME280;68470;50.224;14.348;2023-03-11T12:18:41;98431.16;;;4.28;54.71
79067;BME280;68470;50.224;14.348;2023-03-11T12:21:24;98431.56;;;4.20;55.16
79067;BME280;68470;50.224;14.348;2023-03-11T12:24:03;98444.75;;;4.28;55.10
79067;BME280;68470;50.224;14.348;2023-03-11T12:26:31;98449.88;;;4.25;55.22
79067;BME280;68470;50.224;14.348;2023-03-11T12:31:40;98433.38;;;3.69;57.32
79067;BME280;68470;50.224;14.348;2023-03-11T12:34:10;98433.38;;;3.69;57.32
79067;BME280;68470;50.224;14.348;2023-03-11T12:36:42;98455.53;;;3.32;58.44
79067;BME280;68470;50.224;14.348;2023-03-11T12:39:34;98457.41;;;3.04;60.41
79067;BME280;68470;50.224;14.348;2023-03-11T12:44:38;98476.34;;;2.63;63.00
79067;BME280;68470;50.224;14.348;2023-03-11T12:49:41;98480.13;;;1.97;66.11
79067;BME280;68470;50.224;14.348;2023-03-11T12:54:42;98479.75;;;2.35;66.34
79067;BME280;68470;50.224;14.348;2023-03-11T13:14:09;98498.41;;;2.67;61.79
79067;BME280;68470;50.224;14.348;2023-03-11T13:16:42;98492.28;;;2.83;62.54
79067;BME280;68470;50.224;14.348;2023-03-11T13:21:53;98498.72;;;3.17;61.31
79067;BME280;68470;50.224;14.348;2023-03-11T13:29:43;98516.75;;;3.47;60.02
79067;BME280;68470;50.224;14.348;2023-03-11T13:32:34;98517.16;;;3.39;58.18
79067;BME280;68470;50.224;14.348;2023-03-11T13:40:42;98515.13;;;4.03;59.22
79067;BME280;68470;50.224;14.348;2023-03-11T13:43:22;98519.63;;;4.26;56.70
79067;BME280;68470;50.224;14.348;2023-03-11T13:46:02;98529.41;;;4.38;56.02
79067;BME280;68470;50.224;14.348;2023-03-11T13:48:35;98530.06;;;4.45;55.77
79067;BME280;68470;50.224;14.348;2023-03-11T13:51:19;98539.31;;;4.61;57.02
79067;BME280;68470;50.224;14.348;2023-03-11T13:53:56;98527.84;;;4.76;55.61
79067;BME280;68470;50.224;14.348;2023-03-11T13:56:29;98529.22;;;4.95;54.74
79067;BME280;68470;50.224;14.348;2023-03-11T13:59:16;98536.16;;;4.86;54.45
79067;BME280;68470;50.224;14.348;2023-03-11T14:01:54;98540.13;;;4.62;53.61
79067;BME280;68470;50.224;14.348;2023-03-11T14:04:27;98537.38;;;4.28;53.84
79067;BME280;68470;50.224;14.348;2023-03-11T14:06:53;98546.56;;;4.22;54.93
79067;BME280;68470;50.224;14.348;2023-03-11T14:09:21;98542.34;;;4.03;55.04
79067;BME280;68470;50.224;14.348;2023-03-11T14:11:48;98558.50;;;3.92;55.24
79067;BME280;68470;50.224;14.348;2023-03-11T14:14:31;98561.69;;;3.61;55.49
79067;BME280;68470;50.224;14.348;2023-03-11T14:17:00;98563.81;;;3.59;56.32
79067;BME280;68470;50.224;14.348;2023-03-11T14:19:28;98566.66;;;3.64;57.75
79067;BME280;68470;50.224;14.348;2023-03-11T14:21:54;98570.00;;;3.54;57.96
79067;BME280;68470;50.224;14.348;2023-03-11T14:24:30;98576.28;;;3.31;58.91
79067;BME280;68470;50.224;14.348;2023-03-11T14:26:59;98570.59;;;3.33;57.84
79067;BME280;68470;50.224;14.348;2023-03-11T14:29:32;98574.97;;;3.46;57.64
79067;BME280;68470;50.224;14.348;2023-03-11T14:31:59;98578.75;;;3.56;57.76
79067;BME280;68470;50.224;14.348;2023-03-11T14:34:27;98569.06;;;3.89;54.93